Time;durP1;ratioP1;P1;durP2;ratioP2;P2;SDS_P1;SDS_P2;PMS_P1;PMS_P2;Temp;Humidity;BMP_temperature;BMP_pressure;BME280_temperature;BME280_humidity;BME280_pressure;Samples;Min_cycle;Max_cycle;Signal;HPM_P1;HPM_P2
2022/05/15 00:00:39;;;;;;;8.10;5.90;;;;;;;17.89;49.93;97719.00;5008967;28;20621;-69
2022/05/15 00:03:15;;;;;;;10.30;6.03;;;;;;;18.04;49.74;97713.66;5003623;28;20468;-70
2022/05/15 00:05:42;;;;;;;6.90;6.00;;;;;;;18.02;49.35;97721.00;5004869;28;20447;-70
2022/05/15 00:08:09;;;;;;;7.97;5.83;;;;;;;18.03;49.52;97724.44;5010958;28;20772;-71
2022/05/15 00:10:35;;;;;;;5.80;5.20;;;;;;;17.93;49.58;97712.28;4993836;28;20466;-70
2022/05/15 00:13:01;;;;;;;7.37;5.00;;;;;;;17.97;49.59;97715.41;5011528;28;20529;-72
2022/05/15 00:15:30;;;;;;;7.60;5.60;;;;;;;17.97;49.54;97707.47;5011324;28;20451;-70
2022/05/15 00:17:56;;;;;;;10.03;6.00;;;;;;;17.95;49.10;97710.28;5015635;28;20188;-69
2022/05/15 00:20:21;;;;;;;6.77;5.23;;;;;;;17.93;48.79;97701.69;5011118;28;20715;-70
2022/05/15 00:22:47;;;;;;;9.13;6.33;;;;;;;17.88;49.09;97698.78;5011349;28;20210;-69
2022/05/15 00:25:12;;;;;;;11.90;5.67;;;;;;;17.82;49.18;97691.56;5010932;28;20248;-70
2022/05/15 00:27:38;;;;;;;8.87;6.20;;;;;;;17.71;49.58;97702.66;5010930;28;20192;-69
2022/05/15 00:30:04;;;;;;;7.93;6.17;;;;;;;17.67;49.65;97712.81;5010979;28;20636;-70
2022/05/15 00:32:30;;;;;;;7.90;5.93;;;;;;;17.67;49.80;97712.81;5011050;28;20201;-69
2022/05/15 00:34:55;;;;;;;9.27;5.70;;;;;;;17.70;49.45;97711.63;5011109;28;20514;-70
2022/05/15 00:37:20;;;;;;;9.70;5.67;;;;;;;17.71;49.31;97718.56;5010981;28;20275;-70
2022/05/15 00:39:46;;;;;;;9.77;5.77;;;;;;;17.73;49.26;97705.94;5011198;28;20192;-70
2022/05/15 00:42:12;;;;;;;9.33;5.80;;;;;;;17.71;49.37;97705.31;5010985;28;20291;-70
2022/05/15 00:44:37;;;;;;;11.03;6.20;;;;;;;17.64;49.83;97695.44;5011231;28;20695;-71
2022/05/15 00:47:04;;;;;;;6.33;5.00;;;;;;;17.51;50.22;97695.31;5010084;28;20184;-70
2022/05/15 00:49:30;;;;;;;7.07;4.90;;;;;;;17.50;50.01;97693.66;4993569;28;20180;-70
2022/05/15 00:51:59;;;;;;;6.53;5.30;;;;;;;17.47;50.42;97697.47;5000998;28;20443;-72
2022/05/15 00:54:44;;;;;;;8.40;5.43;;;;;;;17.50;50.53;97697.09;5010677;28;20451;-69
2022/05/15 00:57:09;;;;;;;7.00;5.30;;;;;;;17.42;50.34;97699.03;5010490;28;20423;-70
2022/05/15 00:59:42;;;;;;;9.73;5.23;;;;;;;17.42;50.46;97705.16;5014744;28;20439;-69
2022/05/15 01:02:09;;;;;;;9.47;5.10;;;;;;;17.51;50.09;97697.94;4997512;28;20238;-70
2022/05/15 01:04:35;;;;;;;10.00;5.10;;;;;;;17.46;50.25;97700.31;5022536;28;21003;-70
2022/05/15 01:07:02;;;;;;;7.97;5.10;;;;;;;17.34;50.58;97697.31;4997429;28;20428;-69
2022/05/15 01:09:28;;;;;;;6.97;5.00;;;;;;;17.39;50.21;97694.13;5015063;28;20195;-71
2022/05/15 01:11:55;;;;;;;4.90;4.43;;;;;;;17.38;50.38;97692.47;4997865;28;20435;-71
2022/05/15 01:14:20;;;;;;;6.70;4.80;;;;;;;17.37;50.25;97693.47;4997193;28;20204;-70
2022/05/15 01:16:46;;;;;;;7.10;5.03;;;;;;;17.26;50.29;97690.28;4997444;28;20471;-71
2022/05/15 01:19:11;;;;;;;10.83;5.00;;;;;;;17.25;50.76;97693.09;4997678;28;20202;-71
2022/05/15 01:21:42;;;;;;;6.67;4.57;;;;;;;17.34;50.40;97692.00;5013872;28;20240;-69
2022/05/15 01:24:08;;;;;;;6.53;4.70;;;;;;;17.33;50.33;97693.84;4996690;28;20247;-69
2022/05/15 01:26:36;;;;;;;6.30;5.30;;;;;;;17.32;50.51;97689.53;4996435;28;20828;-70
2022/05/15 01:29:03;;;;;;;10.70;4.93;;;;;;;17.21;50.73;97690.00;4996590;28;20434;-71
2022/05/15 01:31:29;;;;;;;8.10;5.40;;;;;;;17.15;51.02;97691.56;4996996;28;20450;-71
2022/05/15 01:33:55;;;;;;;5.27;4.50;;;;;;;17.16;51.05;97684.44;5013655;28;20431;-70
2022/05/15 01:36:23;;;;;;;6.43;4.97;;;;;;;17.24;50.79;97680.88;5013489;28;20990;-70
2022/05/15 01:38:50;;;;;;;8.13;5.83;;;;;;;17.25;50.78;97677.22;5014358;28;20574;-71
2022/05/15 01:41:15;;;;;;;7.33;5.13;;;;;;;17.24;50.85;97687.00;4980136;28;20431;-71
2022/05/15 01:43:43;;;;;;;9.17;5.27;;;;;;;17.15;50.42;97688.06;5014189;28;20937;-70
2022/05/15 01:46:10;;;;;;;5.60;4.60;;;;;;;17.03;50.96;97683.25;5013760;28;20216;-70
2022/05/15 01:48:36;;;;;;;7.53;4.90;;;;;;;17.10;51.19;97680.69;5013188;28;20474;-71
2022/05/15 01:51:02;;;;;;;5.70;4.60;;;;;;;17.04;50.86;97684.06;4996248;28;20944;-71
2022/05/15 01:53:28;;;;;;;6.30;4.57;;;;;;;17.03;50.85;97685.88;5014257;28;20416;-70
2022/05/15 01:55:54;;;;;;;8.07;5.60;;;;;;;16.86;51.62;97679.09;5013426;28;20782;-70
2022/05/15 01:58:19;;;;;;;8.07;5.17;;;;;;;16.86;51.68;97677.25;5012956;28;20902;-70
2022/05/15 02:00:44;;;;;;;7.00;4.70;;;;;;;16.95;50.96;97677.22;5013609;28;20188;-71
2022/05/15 02:03:10;;;;;;;9.20;4.83;;;;;;;16.89;50.98;97689.31;5013207;28;20242;-71
2022/05/15 02:05:36;;;;;;;5.23;4.70;;;;;;;16.91;51.26;97687.31;5013748;28;20837;-70
2022/05/15 02:08:01;;;;;;;7.20;4.43;;;;;;;16.88;51.21;97677.09;5012908;28;20184;-71
2022/05/15 02:10:27;;;;;;;6.53;4.50;;;;;;;16.79;51.41;97676.34;5013335;28;20267;-71
2022/05/15 02:12:52;;;;;;;9.33;4.60;;;;;;;16.76;51.41;97674.06;5013501;28;20185;-70
2022/05/15 02:15:18;;;;;;;8.60;4.80;;;;;;;16.72;51.40;97676.25;5018213;28;20239;-71
2022/05/15 02:17:43;;;;;;;7.23;4.60;;;;;;;16.74;51.56;97674.25;5012737;28;20199;-71
2022/05/15 02:20:10;;;;;;;6.70;4.47;;;;;;;16.74;51.69;97673.41;5013155;28;20203;-70
2022/05/15 02:22:38;;;;;;;4.63;3.90;;;;;;;16.62;51.58;97667.75;5013436;28;20679;-70
2022/05/15 02:25:06;;;;;;;4.50;4.10;;;;;;;16.65;51.95;97667.38;5012868;28;20538;-71
2022/05/15 02:27:32;;;;;;;8.23;4.40;;;;;;;16.67;51.89;97669.84;5013095;28;20435;-70
2022/05/15 02:29:58;;;;;;;5.73;4.20;;;;;;;16.59;52.10;97668.91;4995547;28;20431;-71
2022/05/15 02:32:24;;;;;;;9.70;4.50;;;;;;;16.63;51.82;97663.28;5012316;28;20446;-70
2022/05/15 02:34:50;;;;;;;7.00;4.43;;;;;;;16.59;51.89;97674.22;5012770;28;21166;-70
2022/05/15 02:37:15;;;;;;;5.10;4.43;;;;;;;16.60;51.82;97672.41;5012641;28;20192;-71
2022/05/15 02:39:41;;;;;;;9.50;4.40;;;;;;;16.56;52.21;97671.09;5013143;28;20203;-71
2022/05/15 02:42:06;;;;;;;5.87;4.30;;;;;;;16.53;52.01;97679.38;5012842;28;20222;-71
2022/05/15 02:44:32;;;;;;;9.83;4.37;;;;;;;16.58;52.26;97674.41;5020337;28;20203;-71
2022/05/15 02:46:57;;;;;;;6.90;4.27;;;;;;;16.54;51.61;97671.28;5018878;28;20697;-70
2022/05/15 02:52:08;;;;;;;7.83;4.57;;;;;;;16.27;52.41;97665.56;5012644;28;20191;-71
2022/05/15 02:54:34;;;;;;;7.13;5.00;;;;;;;16.27;52.85;97676.13;5012627;28;20509;-70
2022/05/15 02:56:59;;;;;;;7.17;4.47;;;;;;;16.37;52.73;97670.63;5012000;28;20440;-70
2022/05/15 02:59:25;;;;;;;8.30;4.17;;;;;;;16.34;52.57;97660.38;4994300;28;20188;-70
2022/05/15 03:01:50;;;;;;;5.60;4.20;;;;;;;16.27;52.46;97664.72;5012684;28;20212;-71
2022/05/15 03:04:16;;;;;;;9.20;4.60;;;;;;;16.26;52.86;97663.06;5012321;28;20216;-70
2022/05/15 03:06:41;;;;;;;8.23;4.50;;;;;;;16.18;53.07;97663.16;5012511;28;20196;-70
2022/05/15 03:09:07;;;;;;;8.37;4.10;;;;;;;16.21;52.91;97668.91;5012334;28;20187;-70
2022/05/15 03:11:32;;;;;;;5.60;4.07;;;;;;;16.22;52.75;97667.09;5012359;28;20196;-71
2022/05/15 03:13:58;;;;;;;6.37;4.63;;;;;;;16.05;53.28;97666.41;5012364;28;20233;-70
2022/05/15 03:16:26;;;;;;;6.47;4.57;;;;;;;16.15;53.13;97666.13;5011558;28;20188;-71
2022/05/15 03:18:51;;;;;;;6.60;4.20;;;;;;;16.15;53.17;97671.44;5012562;28;20231;-70
2022/05/15 03:21:30;;;;;;;8.90;4.23;;;;;;;16.16;52.92;97673.06;5011162;28;20466;-71
2022/05/15 03:24:00;;;;;;;7.77;4.60;;;;;;;16.06;53.20;97663.56;4996635;28;20188;-70
2022/05/15 03:26:26;;;;;;;7.00;4.20;;;;;;;16.07;52.82;97675.78;4994179;28;20431;-71
2022/05/15 03:28:52;;;;;;;6.97;4.47;;;;;;;16.05;53.33;97666.41;5012144;28;20428;-71
2022/05/15 03:31:17;;;;;;;7.20;4.50;;;;;;;16.12;53.09;97669.97;5011561;28;20525;-70
2022/05/15 03:33:43;;;;;;;5.20;4.03;;;;;;;16.13;52.96;97675.06;5011712;28;20211;-70
2022/05/15 03:36:15;;;;;;;8.10;4.60;;;;;;;16.08;53.03;97671.31;5009881;28;20274;-69
2022/05/15 03:38:43;;;;;;;5.47;3.70;;;;;;;16.06;53.17;97676.78;5004859;28;20190;-70
2022/05/15 03:41:09;;;;;;;15.70;5.07;;;;;;;15.94;53.36;97671.06;5011115;28;20439;-69
2022/05/15 03:43:35;;;;;;;6.63;4.57;;;;;;;15.95;53.36;97672.72;5009884;28;20873;-70
2022/05/15 03:46:02;;;;;;;5.83;5.13;;;;;;;15.96;53.36;97678.84;4993340;28;20804;-73
2022/05/15 03:48:27;;;;;;;11.97;5.23;;;;;;;15.93;53.45;97682.66;5011043;28;20497;-69
2022/05/15 03:50:53;;;;;;;7.07;4.93;;;;;;;15.93;53.44;97687.94;5011121;28;20428;-70
2022/05/15 03:53:18;;;;;;;5.47;4.13;;;;;;;15.89;53.55;97685.81;5010469;28;20284;-69
2022/05/15 03:55:44;;;;;;;4.80;4.00;;;;;;;15.94;53.67;97684.28;4993830;28;20269;-69
2022/05/15 03:58:09;;;;;;;7.33;4.10;;;;;;;15.92;53.52;97681.00;5010243;28;20682;-69
2022/05/15 04:00:35;;;;;;;7.20;4.27;;;;;;;15.91;53.61;97681.16;5010825;28;20190;-69
2022/05/15 04:03:01;;;;;;;6.13;4.33;;;;;;;15.96;53.41;97679.66;5011070;28;20295;-69
2022/05/15 04:05:27;;;;;;;10.77;4.27;;;;;;;15.95;53.61;97682.47;5010916;28;20204;-69
2022/05/15 04:07:53;;;;;;;5.53;3.90;;;;;;;15.93;53.35;97690.59;5009873;28;20636;-70
2022/05/15 04:10:20;;;;;;;7.50;4.73;;;;;;;15.84;53.74;97688.13;5010780;28;20428;-69
2022/05/15 04:12:46;;;;;;;6.50;3.80;;;;;;;15.82;54.00;97689.13;5011167;28;20551;-69
2022/05/15 04:15:13;;;;;;;8.13;4.90;;;;;;;15.83;54.00;97684.66;4992208;28;20458;-69
2022/05/15 04:17:42;;;;;;;5.80;3.50;;;;;;;15.88;53.82;97689.47;5010948;28;20180;-70
2022/05/15 04:20:10;;;;;;;7.87;4.10;;;;;;;15.90;54.07;97685.66;5010535;28;20459;-69
2022/05/15 04:22:35;;;;;;;5.60;4.27;;;;;;;15.89;54.34;97673.44;5013008;28;20923;-69
2022/05/15 04:25:01;;;;;;;4.87;3.80;;;;;;;15.98;54.33;97682.13;5010024;28;20470;-72
2022/05/15 04:27:26;;;;;;;5.80;4.97;;;;;;;15.95;54.33;97682.47;5010698;28;20181;-69
2022/05/15 04:29:52;;;;;;;4.37;3.70;;;;;;;16.00;54.33;97679.31;5009483;28;20192;-69
2022/05/15 04:32:18;;;;;;;6.70;4.13;;;;;;;16.03;54.31;97685.06;5010077;28;20569;-69
2022/05/15 04:34:43;;;;;;;7.00;3.97;;;;;;;16.06;54.42;97682.06;5010233;28;20450;-70
2022/05/15 04:37:09;;;;;;;9.53;4.13;;;;;;;16.06;54.36;97678.63;5010380;28;20188;-69
2022/05/15 04:39:34;;;;;;;6.53;4.17;;;;;;;16.08;54.72;97684.53;5016126;28;20273;-70
2022/05/15 04:42:00;;;;;;;6.37;4.20;;;;;;;16.10;54.66;97686.03;5009083;28;20324;-71
2022/05/15 04:44:26;;;;;;;7.07;4.50;;;;;;;16.03;54.99;97684.25;5011021;28;20200;-69
2022/05/15 04:46:52;;;;;;;6.23;4.23;;;;;;;16.08;54.92;97689.81;5010547;28;20438;-69
2022/05/15 04:49:17;;;;;;;8.97;3.93;;;;;;;16.05;55.00;97687.53;5010081;28;20259;-69
2022/05/15 04:51:43;;;;;;;4.40;3.90;;;;;;;16.18;54.63;97690.44;5010392;28;20256;-71
2022/05/15 04:54:08;;;;;;;7.83;4.30;;;;;;;16.22;54.69;97681.13;5010660;28;20212;-71
2022/05/15 04:56:34;;;;;;;7.03;4.83;;;;;;;16.26;54.62;97686.88;5011336;28;20180;-71
2022/05/15 04:59:00;;;;;;;6.03;4.47;;;;;;;16.35;54.30;97680.53;5009417;28;20192;-69
2022/05/15 05:01:27;;;;;;;6.80;4.30;;;;;;;16.36;54.91;97690.13;5010744;28;20184;-71
2022/05/15 05:03:54;;;;;;;5.67;4.63;;;;;;;16.36;54.74;97690.13;5010404;28;20180;-70
2022/05/15 05:06:20;;;;;;;4.07;3.67;;;;;;;16.29;55.06;97689.16;5009219;28;20431;-70
2022/05/15 05:08:45;;;;;;;9.13;3.93;;;;;;;16.17;55.20;97685.28;5010203;28;20438;-70
2022/05/15 05:11:11;;;;;;;8.67;4.23;;;;;;;16.22;54.97;97697.00;4992902;28;20191;-70
2022/05/15 05:13:36;;;;;;;5.80;4.13;;;;;;;16.37;54.47;97696.22;4993022;28;20702;-70
2022/05/15 05:16:02;;;;;;;6.10;3.90;;;;;;;16.39;54.83;97700.34;5009431;28;20287;-70
2022/05/15 05:18:27;;;;;;;5.70;3.53;;;;;;;16.56;54.81;97694.91;5010001;28;20180;-69
2022/05/15 05:20:53;;;;;;;5.37;4.03;;;;;;;16.66;54.52;97695.47;5010263;28;20609;-71
2022/05/15 05:23:18;;;;;;;4.03;3.70;;;;;;;16.79;54.31;97694.88;5008971;28;20216;-70
2022/05/15 05:25:44;;;;;;;4.70;4.17;;;;;;;16.94;54.08;97704.69;5009962;28;20243;-71
2022/05/15 05:28:10;;;;;;;5.40;4.07;;;;;;;17.04;54.33;97703.41;5011579;28;20188;-70
2022/05/15 05:30:37;;;;;;;5.90;3.97;;;;;;;17.12;54.07;97705.16;5010403;28;20234;-70
2022/05/15 05:33:03;;;;;;;6.27;4.50;;;;;;;17.23;54.25;97706.53;5008728;28;20455;-71
2022/05/15 05:35:29;;;;;;;6.37;5.20;;;;;;;17.25;54.53;97709.84;5009603;28;20466;-72
2022/05/15 05:37:55;;;;;;;5.73;4.30;;;;;;;17.53;55.49;97709.16;5005057;28;20443;-72
2022/05/15 05:40:22;;;;;;;4.90;4.20;;;;;;;17.84;54.44;97708.13;5008641;28;20187;-72
2022/05/15 05:42:47;;;;;;;6.10;3.90;;;;;;;18.14;53.01;97709.88;4991808;28;20255;-72
2022/05/15 05:45:13;;;;;;;4.40;3.60;;;;;;;18.38;52.74;97704.19;5011938;28;20439;-72
2022/05/15 05:47:39;;;;;;;5.60;3.70;;;;;;;18.67;52.14;97704.22;4994602;28;20196;-72
2022/05/15 05:50:09;;;;;;;6.03;3.77;;;;;;;18.86;50.98;97702.75;5012459;28;20863;-71
2022/05/15 05:52:41;;;;;;;5.53;3.63;;;;;;;18.97;50.78;97704.09;5010910;28;20639;-70
2022/05/15 05:55:10;;;;;;;5.67;3.60;;;;;;;19.03;50.58;97700.63;5010334;28;20505;-72
2022/05/15 05:57:36;;;;;;;4.60;3.57;;;;;;;19.24;50.23;97696.28;5012519;28;20543;-70
2022/05/15 06:00:07;;;;;;;6.70;3.77;;;;;;;19.39;49.56;97694.31;5013013;28;20518;-69
2022/05/15 06:02:32;;;;;;;9.93;3.47;;;;;;;19.52;46.81;97692.75;4995381;28;20487;-70
2022/05/15 06:04:58;;;;;;;4.37;3.70;;;;;;;19.64;46.35;97696.47;4995536;28;20455;-70
2022/05/15 06:07:26;;;;;;;4.10;3.50;;;;;;;19.77;46.37;97698.34;5012625;28;20205;-70
2022/05/15 06:09:52;;;;;;;5.27;3.20;;;;;;;19.89;45.73;97695.97;5012999;28;20192;-70
2022/05/15 06:12:21;;;;;;;3.93;3.13;;;;;;;19.96;44.71;97694.16;5012674;28;20458;-71
2022/05/15 06:14:47;;;;;;;5.00;3.13;;;;;;;20.05;44.50;97692.94;5012985;28;20204;-70
2022/05/15 06:17:12;;;;;;;9.03;3.10;;;;;;;20.22;44.87;97696.06;5012763;28;20539;-71
2022/05/15 06:19:38;;;;;;;8.47;3.60;;;;;;;20.38;44.48;97702.84;5013412;28;20238;-71
2022/05/15 06:22:04;;;;;;;11.87;3.10;;;;;;;20.56;44.74;97694.25;5012829;28;20219;-70
2022/05/15 06:24:29;;;;;;;9.03;2.60;;;;;;;20.69;43.75;97698.72;4999852;28;20283;-70
2022/05/15 06:26:59;;;;;;;6.40;2.80;;;;;;;20.86;43.50;97693.03;5012795;28;20545;-71
2022/05/15 06:29:26;;;;;;;3.10;2.70;;;;;;;21.00;43.25;97691.16;5012844;28;20234;-70
2022/05/15 06:31:52;;;;;;;5.43;2.70;;;;;;;21.13;42.02;97692.97;5012867;28;20870;-71
2022/05/15 06:34:17;;;;;;;5.80;2.87;;;;;;;21.26;41.51;97695.63;4966795;28;20490;-69
2022/05/15 06:36:43;;;;;;;4.13;2.50;;;;;;;21.28;40.43;97693.56;5012554;28;20427;-71
2022/05/15 06:39:09;;;;;;;4.97;2.53;;;;;;;21.44;40.91;97691.44;5012895;28;20203;-70
2022/05/15 06:41:34;;;;;;;10.33;2.70;;;;;;;21.59;41.26;97686.72;5013003;28;20189;-70
2022/05/15 06:44:00;;;;;;;2.27;2.07;;;;;;;21.78;41.52;97694.84;5012693;28;20427;-70
2022/05/15 06:46:27;;;;;;;3.37;2.13;;;;;;;21.95;41.12;97695.16;5004910;28;20191;-70
2022/05/15 06:48:52;;;;;;;2.90;2.20;;;;;;;22.05;40.70;97700.03;5012430;28;20518;-68
2022/05/15 06:51:18;;;;;;;5.33;1.90;;;;;;;22.21;40.75;97690.69;4995213;28;20510;-70
2022/05/15 06:53:45;;;;;;;10.50;2.40;;;;;;;22.32;39.56;97689.16;5012479;28;20597;-70
2022/05/15 06:58:54;;;;;;;2.80;2.03;;;;;;;22.56;37.98;97692.94;5011944;28;20431;-69
2022/05/15 07:01:19;;;;;;;4.57;2.10;;;;;;;22.68;37.16;97695.72;5012368;28;20554;-70
2022/05/15 07:03:45;;;;;;;3.40;2.00;;;;;;;22.76;36.74;97687.44;5012342;28;20573;-70
2022/05/15 07:06:10;;;;;;;8.23;2.20;;;;;;;22.85;37.57;97688.78;5012266;28;20259;-70
2022/05/15 07:08:36;;;;;;;4.60;1.97;;;;;;;22.95;37.31;97684.78;5012030;28;20184;-71
2022/05/15 07:11:02;;;;;;;3.57;2.40;;;;;;;23.08;38.32;97686.53;5011895;28;20227;-70
2022/05/15 07:13:28;;;;;;;8.30;2.40;;;;;;;23.15;37.99;97688.09;5012192;28;20459;-70
2022/05/15 07:15:53;;;;;;;5.47;2.37;;;;;;;23.19;38.15;97682.31;5012480;28;20210;-71
2022/05/15 07:18:19;;;;;;;6.70;2.33;;;;;;;23.34;38.00;97687.31;5011743;28;20188;-70
2022/05/15 07:20:44;;;;;;;2.93;2.30;;;;;;;23.45;37.87;97686.56;5012092;28;20671;-71
2022/05/15 07:23:09;;;;;;;7.60;2.50;;;;;;;23.55;37.55;97686.03;5011598;28;20346;-71
2022/05/15 07:25:35;;;;;;;3.50;2.10;;;;;;;23.68;37.35;97687.72;5011894;28;20323;-70
2022/05/15 07:28:00;;;;;;;7.03;2.23;;;;;;;23.72;36.55;97697.75;5011889;28;20249;-70
2022/05/15 07:30:26;;;;;;;5.63;3.13;;;;;;;23.83;36.95;97695.34;5012236;28;20188;-69
2022/05/15 07:32:51;;;;;;;6.47;2.63;;;;;;;24.03;37.09;97689.75;5011709;28;20334;-70
2022/05/15 07:35:18;;;;;;;9.83;3.00;;;;;;;24.21;37.05;97689.69;5011706;28;20690;-69
2022/05/15 07:37:43;;;;;;;5.00;2.33;;;;;;;24.37;36.47;97687.41;5012035;28;20746;-69
2022/05/15 07:40:10;;;;;;;5.23;2.60;;;;;;;24.46;36.02;97691.38;5011633;28;20530;-69
2022/05/15 07:42:38;;;;;;;6.93;2.33;;;;;;;24.61;35.45;97682.09;5012129;28;20212;-69
2022/05/15 07:45:04;;;;;;;2.97;2.20;;;;;;;24.80;36.02;97680.16;4993967;28;20457;-69
2022/05/15 07:47:29;;;;;;;5.00;2.40;;;;;;;24.96;35.33;97675.94;5014371;28;20443;-71
2022/05/15 07:49:55;;;;;;;6.80;2.93;;;;;;;25.10;34.49;97673.81;5011832;28;20431;-69
2022/05/15 07:52:20;;;;;;;5.40;2.50;;;;;;;25.26;34.69;97675.00;4993574;28;20192;-69
2022/05/15 07:54:46;;;;;;;4.27;2.63;;;;;;;25.37;34.36;97671.47;5011326;28;20577;-70
2022/05/15 07:57:11;;;;;;;5.53;1.97;;;;;;;25.52;34.43;97675.56;5011039;28;20192;-69
2022/05/15 07:59:37;;;;;;;3.77;2.63;;;;;;;25.50;33.47;97673.09;5011005;28;20192;-70
2022/05/15 08:02:06;;;;;;;4.40;2.20;;;;;;;25.61;33.83;97671.44;5011234;28;20219;-70
2022/05/15 08:10:04;;;;;;;3.93;2.20;;;;;;;26.00;33.17;97668.13;5007891;28;20431;-70
2022/05/15 08:12:29;;;;;;;5.20;2.40;;;;;;;26.19;33.48;97668.75;4994107;28;20996;-69
2022/05/15 08:14:55;;;;;;;8.17;2.67;;;;;;;26.29;33.03;97673.47;5011211;28;20455;-71
2022/05/15 08:17:20;;;;;;;6.00;2.40;;;;;;;26.33;32.65;97671.94;5010784;28;20188;-70
2022/05/15 08:25:15;;;;;;;10.70;2.30;;;;;;;26.72;32.63;97677.38;4995955;28;20447;-69
2022/05/15 08:27:40;;;;;;;4.20;2.40;;;;;;;26.75;32.08;97665.34;5011027;28;20984;-70
2022/05/15 08:30:06;;;;;;;3.20;2.17;;;;;;;26.89;32.10;97672.03;5011389;28;20439;-71
2022/05/15 08:32:32;;;;;;;5.83;2.30;;;;;;;26.97;31.28;97671.59;5010819;28;20223;-70
2022/05/15 08:35:00;;;;;;;5.07;2.43;;;;;;;27.08;31.23;97671.75;5010814;28;20435;-70
2022/05/15 08:37:25;;;;;;;4.13;2.57;;;;;;;27.15;31.85;97661.63;5010560;28;20180;-70
2022/05/15 08:39:51;;;;;;;4.07;2.47;;;;;;;27.27;30.80;97661.50;5011272;28;20461;-71
2022/05/15 08:42:33;;;;;;;5.67;2.30;;;;;;;27.39;32.02;97664.09;5010869;28;20200;-69
2022/05/15 08:45:01;;;;;;;5.97;2.13;;;;;;;27.48;30.91;97664.47;4993360;28;20890;-69
2022/05/15 08:47:36;;;;;;;3.43;2.37;;;;;;;27.54;30.75;97660.78;5010874;28;20926;-71
2022/05/15 08:50:06;;;;;;;6.60;2.30;;;;;;;27.72;30.79;97662.31;5010669;28;20427;-71
2022/05/15 08:52:38;;;;;;;4.13;2.17;;;;;;;27.74;30.19;97655.59;4993306;28;20784;-71
2022/05/15 08:55:17;;;;;;;4.50;2.33;;;;;;;27.82;30.34;97659.72;5010434;28;20443;-71
2022/05/15 08:58:00;;;;;;;5.33;2.13;;;;;;;28.00;29.92;97669.34;5009646;28;20443;-70
2022/05/15 09:00:38;;;;;;;6.60;2.37;;;;;;;28.12;30.46;97668.41;4993058;28;20903;-70
2022/05/15 09:03:22;;;;;;;5.90;2.20;;;;;;;28.26;29.71;97664.22;4976642;28;20463;-71
2022/05/15 09:05:55;;;;;;;4.30;1.97;;;;;;;28.44;29.38;97673.78;5010540;28;20461;-70
2022/05/15 09:08:26;;;;;;;6.20;2.20;;;;;;;28.48;28.00;97666.03;5010110;28;20977;-71
2022/05/15 09:11:01;;;;;;;7.10;2.17;;;;;;;28.62;28.57;97661.78;5010724;28;20428;-69
2022/05/15 09:13:42;;;;;;;6.00;2.40;;;;;;;28.72;29.26;97657.56;4985153;28;20429;-74
2022/05/15 09:16:33;;;;;;;8.77;2.00;;;;;;;28.67;28.41;97661.84;5010316;28;20458;-70
2022/05/15 09:19:01;;;;;;;5.43;2.50;;;;;;;28.56;28.24;97660.16;4990771;28;20443;-70
2022/05/15 09:21:27;;;;;;;4.80;1.80;;;;;;;28.61;27.85;97656.69;5006689;28;20423;-71
2022/05/15 09:23:54;;;;;;;2.50;1.87;;;;;;;28.86;27.89;97658.75;5013921;28;20470;-70
2022/05/15 09:26:27;;;;;;;2.73;2.10;;;;;;;29.04;27.94;97654.00;4996203;28;20249;-74
2022/05/15 09:28:55;;;;;;;4.77;2.03;;;;;;;29.28;28.32;97659.81;5014352;28;20945;-70
2022/05/15 09:31:42;;;;;;;3.33;2.00;;;;;;;29.26;28.51;97649.25;5014001;28;20450;-70
2022/05/15 09:34:22;;;;;;;5.23;2.00;;;;;;;29.35;27.54;97651.50;5013836;28;20811;-70
2022/05/15 09:36:49;;;;;;;3.73;1.97;;;;;;;29.56;27.48;97650.47;5013820;28;20423;-69
2022/05/15 09:39:27;;;;;;;6.13;2.10;;;;;;;29.78;28.31;97651.34;4996552;28;20922;-70
2022/05/15 09:45:06;;;;;;;4.90;2.20;;;;;;;30.21;27.92;97651.16;5010525;28;20465;-71
2022/05/15 09:47:37;;;;;;;5.27;2.27;;;;;;;30.32;26.85;97653.59;5006626;28;20965;-69
2022/05/15 09:50:03;;;;;;;4.00;2.00;;;;;;;29.58;26.32;97648.34;5013872;28;20420;-68
2022/05/15 09:52:38;;;;;;;5.47;1.90;;;;;;;29.82;26.82;97641.63;4996179;28;20449;-71
2022/05/15 09:55:21;;;;;;;5.50;1.93;;;;;;;30.13;26.60;97650.59;5013781;28;20487;-69
2022/05/15 09:57:58;;;;;;;8.43;2.03;;;;;;;30.38;26.34;97648.19;5012965;28;20424;-70
2022/05/15 10:00:27;;;;;;;6.57;2.00;;;;;;;30.60;25.65;97647.94;5013350;28;20439;-70
2022/05/15 10:02:54;;;;;;;3.53;1.87;;;;;;;30.46;25.39;97645.75;5013666;28;20749;-69
2022/05/15 10:05:22;;;;;;;7.57;2.30;;;;;;;30.47;24.82;97641.16;5013216;28;20455;-70
2022/05/15 10:07:58;;;;;;;2.80;1.90;;;;;;;30.63;24.96;97648.19;5013398;28;20523;-69
2022/05/15 10:10:44;;;;;;;3.70;1.97;;;;;;;30.67;25.04;97637.63;5013252;28;20431;-72
2022/05/15 10:13:21;;;;;;;2.63;1.70;;;;;;;30.71;24.13;97636.03;5011949;28;20431;-69
2022/05/15 10:15:49;;;;;;;4.43;2.37;;;;;;;30.84;23.88;97633.84;5014962;28;20459;-71
2022/05/15 10:18:19;;;;;;;3.57;1.97;;;;;;;31.06;24.58;97626.19;4997910;28;20439;-69
2022/05/15 10:20:46;;;;;;;3.20;2.20;;;;;;;31.01;24.66;97626.19;4995266;28;20497;-71
2022/05/15 10:23:18;;;;;;;2.80;1.57;;;;;;;31.19;24.17;97624.00;4994972;28;20874;-70
2022/05/15 10:26:07;;;;;;;1.97;1.77;;;;;;;31.32;24.12;97623.41;4995557;28;20462;-71
2022/05/15 10:28:46;;;;;;;3.57;1.80;;;;;;;31.35;23.44;97622.88;4995525;28;20453;-71
2022/05/15 10:31:21;;;;;;;4.67;1.90;;;;;;;31.44;23.85;97611.44;5010837;28;20446;-71
2022/05/15 10:33:57;;;;;;;3.60;2.00;;;;;;;31.45;23.64;97611.16;5012783;28;20517;-69
2022/05/15 10:37:03;;;;;;;5.33;2.17;;;;;;;31.36;22.99;97605.53;4978569;28;20426;-70
2022/05/15 10:39:57;;;;;;;5.50;1.97;;;;;;;31.48;23.85;97602.47;5004906;28;20434;-69
2022/05/15 10:42:37;;;;;;;4.33;2.07;;;;;;;30.99;23.33;97609.44;5010371;28;20567;-70
2022/05/15 10:45:25;;;;;;;3.23;1.53;;;;;;;31.24;23.66;97600.44;5012552;28;20443;-71
2022/05/15 10:48:27;;;;;;;6.10;1.73;;;;;;;31.55;23.99;97604.88;4995363;28;20828;-71
2022/05/15 10:51:03;;;;;;;5.20;1.70;;;;;;;31.67;23.68;97591.00;5010069;28;20938;-71
2022/05/15 10:59:54;;;;;;;3.13;2.23;;;;;;;31.67;22.86;97585.59;5010078;28;20955;-69
2022/05/15 11:02:35;;;;;;;4.73;1.73;;;;;;;31.64;21.65;97575.31;5011935;28;20463;-70
2022/05/15 11:05:09;;;;;;;3.10;1.80;;;;;;;31.61;22.55;97576.69;5012500;28;20487;-71
2022/05/15 11:07:49;;;;;;;3.40;2.50;;;;;;;31.78;23.01;97564.66;4987845;28;20799;-69
2022/05/15 11:10:22;;;;;;;3.10;2.30;;;;;;;31.97;23.30;97567.50;4994704;28;20453;-69
2022/05/15 11:13:04;;;;;;;1.90;1.70;;;;;;;31.81;22.23;97566.81;5012170;28;21025;-71
2022/05/15 11:15:45;;;;;;;9.40;2.03;;;;;;;31.84;21.97;97564.34;4987322;28;20892;-70
2022/05/15 11:18:26;;;;;;;5.60;1.83;;;;;;;31.79;21.28;97569.81;5011912;28;20434;-71
2022/05/15 11:20:56;;;;;;;3.03;1.40;;;;;;;31.54;21.19;97557.22;5012087;28;20538;-71
2022/05/15 11:23:42;;;;;;;4.53;2.13;;;;;;;31.88;21.88;97553.78;4994367;28;20586;-70
2022/05/15 11:26:16;;;;;;;6.17;2.00;;;;;;;32.17;21.82;97555.69;5011340;28;20447;-70
2022/05/15 11:28:56;;;;;;;6.57;2.07;;;;;;;32.20;21.51;97554.31;5012075;28;20431;-69
2022/05/15 11:31:28;;;;;;;6.27;1.77;;;;;;;32.16;21.62;97544.03;4994059;28;20441;-69
2022/05/15 11:33:56;;;;;;;5.47;1.80;;;;;;;32.16;21.14;97546.75;5010574;28;20431;-71
2022/05/15 11:36:22;;;;;;;3.40;2.10;;;;;;;32.10;21.12;97547.09;5011501;28;20449;-71
2022/05/15 11:39:05;;;;;;;3.70;1.83;;;;;;;32.23;22.15;97553.72;5012131;28;20427;-70
2022/05/15 11:41:34;;;;;;;7.03;4.23;;;;;;;32.25;21.45;97544.28;5011171;28;20218;-69
2022/05/15 11:44:05;;;;;;;4.43;1.80;;;;;;;31.95;21.47;97550.72;5011550;28;20990;-70
2022/05/15 11:47:00;;;;;;;4.93;1.80;;;;;;;31.78;22.15;97537.56;5003905;28;20431;-71
2022/05/15 11:49:37;;;;;;;2.30;1.60;;;;;;;31.85;22.47;97538.09;4977470;28;20443;-69
2022/05/15 11:52:08;;;;;;;3.87;1.87;;;;;;;30.79;22.77;97534.59;5011035;28;20529;-71
2022/05/15 11:54:37;;;;;;;2.20;1.87;;;;;;;31.35;23.37;97536.22;5011837;28;20583;-69
2022/05/15 11:57:13;;;;;;;5.27;1.90;;;;;;;31.63;22.98;97531.16;5011034;28;20428;-72
2022/05/15 11:59:51;;;;;;;4.80;1.93;;;;;;;31.79;22.80;97529.19;4998906;28;20933;-69
2022/05/15 12:02:20;;;;;;;2.97;1.80;;;;;;;32.04;22.65;97537.38;5011137;28;20462;-72
2022/05/15 12:04:46;;;;;;;3.73;1.70;;;;;;;32.20;22.42;97530.72;5011348;28;20463;-70
2022/05/15 12:07:14;;;;;;;4.40;1.57;;;;;;;32.13;21.73;97527.56;5011063;28;20426;-71